aviador You're here:

CYRQ Decoded Metar

TROIS RIVIERE in CANADA
Report Time2017-09-20 16:00:00
UTC Time2017-09-20 16:22:05
Flight Rules vfr VFR
Wind050° at 08 kt
W.Decomp.*RWY 05: 7.7 kt HW 2.2 kt RCW
W.Rank050° ranks 4
Current wind is above 050° avg. (7.7)
Visibility9999 m
Phenomena:N/A
Clouds:Few 015 Hf
Overcast 039 Hf
Expected CloudBase > 1,600 ft AGL from Temp-Dew spread
Ceiling3,900 ft
Temp21°C (ISA +6)
Dew Point17°C (78% RH)
AAT20.5°C
QNH1018 hPa
Density Alt1,033 ft
Elevation198 ft
Report Wrong Elevation
Raw Report
METAR CYRQ 201600Z AUTO 05008KT 9SM FEW015 OVC039 21/17 A3007 RMK
SLP185 DENSITY ALT 700FT=

Extra information for CYRQ:More info

Metar Taf Metar & Taf Last 4 Metars F.Rules Stats Wind Profile Meteogram Temp Stats Airport Information Weather charts Add Link Nearby VenuesMetar ALERT Operation Metar Decoded Social comments